Grubbs, Arkansas
Current Conditions -  °F | °C
As of 6:08 PM on Friday 21 Nov 2014 (Local Time) from KM19 Reporting Station
Light Rain Light Rain  
Wind Chill: 42°   Ceiling: 7500
Heat Index: 45°   Visibility: 3mi
Dew Point: 43°   Wind: 5mph
Humidity: 93%   Direction: 50°NE
Pressure: 30.3"   Gusts: NA
Location:  35.65°N, 91.07°W
Report Text: KM19 220008Z AUTO 05004KT 3SM -RA BR FEW060 OVC075 07/06 A3030 RMK AO2 P0000
Loading
Personal Weather Stations






























Interactive Weather Map New forecast layout! Learn more

10-Day Weather Forecast

Advertisements
Track Severe Weather on mobile